createdAt,value
2018-05-03T00:00:58.806Z,99.90
2018-05-03T00:03:27.158Z,99.90
2018-05-03T00:05:55.822Z,99.90
2018-05-03T00:08:24.157Z,99.90
2018-05-03T00:10:53.236Z,99.90
2018-05-03T00:13:21.589Z,99.90
2018-05-03T00:15:49.949Z,99.90
2018-05-03T00:18:19.090Z,99.90
2018-05-03T00:20:47.660Z,99.90
2018-05-03T00:23:16.013Z,99.90
2018-05-03T00:25:44.360Z,99.90
2018-05-03T00:28:12.694Z,99.90
2018-05-03T00:30:41.031Z,99.90
2018-05-03T00:33:09.420Z,99.90
2018-05-03T00:35:37.749Z,99.90
2018-05-03T00:38:06.849Z,99.90
2018-05-03T00:40:35.974Z,99.90
2018-05-03T00:43:04.295Z,99.90
2018-05-03T00:45:32.621Z,99.90
2018-05-03T00:48:00.973Z,99.90
2018-05-03T00:50:29.318Z,99.90
2018-05-03T00:52:57.663Z,99.90
2018-05-03T00:55:26.034Z,99.90
2018-05-03T00:57:54.799Z,99.90
2018-05-03T01:00:23.170Z,99.90
2018-05-03T01:02:51.514Z,99.90
2018-05-03T01:05:19.875Z,99.90
2018-05-03T01:07:48.197Z,99.90
2018-05-03T01:10:17.321Z,99.90
2018-05-03T01:12:45.635Z,99.90
2018-05-03T01:15:14.359Z,99.90
2018-05-03T01:17:43.453Z,99.90
2018-05-03T01:20:12.583Z,99.90
2018-05-03T01:22:41.299Z,99.90
2018-05-03T01:25:09.621Z,99.90
2018-05-03T01:27:37.952Z,99.90
2018-05-03T01:30:06.306Z,99.90
2018-05-03T01:32:34.670Z,99.90
2018-05-03T01:35:14.631Z,99.90
2018-05-03T01:37:42.981Z,99.90
2018-05-03T01:40:11.353Z,99.90
2018-05-03T01:42:39.834Z,99.90
2018-05-03T01:45:08.168Z,99.90
2018-05-03T01:47:36.516Z,99.90
2018-05-03T01:50:04.859Z,99.90
2018-05-03T01:52:33.980Z,99.90
2018-05-03T01:55:02.330Z,99.90
2018-05-03T01:57:31.452Z,99.90
2018-05-03T01:59:59.809Z,99.90
2018-05-03T02:02:28.268Z,99.90
2018-05-03T02:04:57.385Z,99.90
2018-05-03T02:07:25.719Z,99.90
2018-05-03T02:09:54.076Z,99.90
2018-05-03T02:12:22.435Z,99.90
2018-05-03T02:14:50.797Z,99.90
2018-05-03T02:17:19.162Z,99.90
2018-05-03T02:19:48.427Z,99.90
2018-05-03T02:22:16.798Z,99.90
2018-05-03T02:24:45.119Z,99.90
2018-05-03T02:27:14.246Z,99.90
2018-05-03T02:29:42.591Z,99.90
2018-05-03T02:32:10.958Z,99.90
2018-05-03T02:34:40.039Z,99.90
2018-05-03T02:37:09.225Z,99.90
2018-05-03T02:39:37.565Z,99.90
2018-05-03T02:42:05.888Z,99.90
2018-05-03T02:44:34.223Z,99.90
2018-05-03T02:47:02.562Z,99.90
2018-05-03T02:49:31.685Z,99.90
2018-05-03T02:52:00.018Z,99.90
2018-05-03T02:54:29.159Z,99.90
2018-05-03T02:57:09.448Z,99.90
2018-05-03T02:59:49.585Z,99.90
2018-05-03T03:02:23.706Z,99.90
2018-05-03T03:05:10.062Z,99.90
2018-05-03T03:07:51.663Z,99.90
2018-05-03T03:13:56.601Z,99.90
2018-05-03T03:16:42.545Z,99.90
2018-05-03T03:22:39.538Z,99.90
2018-05-03T03:28:33.368Z,99.90
2018-05-03T03:31:19.229Z,99.90
2018-05-03T03:34:02.486Z,99.90
2018-05-03T03:39:53.391Z,99.90
2018-05-03T03:45:25.796Z,99.90
2018-05-03T03:47:54.136Z,99.90
2018-05-03T03:50:22.460Z,99.90
2018-05-03T03:52:50.795Z,99.90
2018-05-03T03:55:19.933Z,99.90
2018-05-03T03:57:48.311Z,99.90
2018-05-03T04:00:16.793Z,99.90
2018-05-03T04:02:45.128Z,99.90
2018-05-03T04:05:14.356Z,99.90
2018-05-03T04:07:42.710Z,99.90
2018-05-03T04:10:11.810Z,99.90
2018-05-03T04:12:40.964Z,99.90
2018-05-03T04:15:09.308Z,99.90
2018-05-03T04:17:49.560Z,99.90
2018-05-03T04:20:40.459Z,99.90
2018-05-03T04:23:20.794Z,99.90
2018-05-03T04:26:02.717Z,99.90
2018-05-03T04:28:31.152Z,99.90
2018-05-03T04:30:59.434Z,99.90
2018-05-03T04:33:27.768Z,99.90
2018-05-03T04:35:56.226Z,99.90
2018-05-03T04:38:24.554Z,99.90
2018-05-03T04:40:52.891Z,99.90
2018-05-03T04:43:21.305Z,99.90
2018-05-03T04:45:49.637Z,99.90
2018-05-03T04:48:18.009Z,99.90
2018-05-03T04:50:46.375Z,99.90
2018-05-03T04:53:14.699Z,99.90
2018-05-03T04:55:43.042Z,99.90
2018-05-03T04:58:11.377Z,99.90
2018-05-03T05:00:39.727Z,99.90
2018-05-03T05:03:08.089Z,99.90
2018-05-03T05:05:36.472Z,99.90
2018-05-03T05:08:04.855Z,99.90
2018-05-03T05:10:33.247Z,99.90
2018-05-03T05:13:02.056Z,99.90
2018-05-03T05:15:30.406Z,99.90
2018-05-03T05:17:58.841Z,99.90
2018-05-03T05:20:27.186Z,99.90
2018-05-03T05:22:55.536Z,99.90
2018-05-03T05:25:23.868Z,99.90
2018-05-03T05:27:53.016Z,99.90
2018-05-03T05:30:21.367Z,99.90
2018-05-03T05:32:49.743Z,99.90
2018-05-03T05:35:18.213Z,99.90
2018-05-03T05:37:46.571Z,99.90
2018-05-03T05:40:15.679Z,99.90
2018-05-03T05:42:44.059Z,99.90
2018-05-03T05:45:12.410Z,99.90
2018-05-03T05:47:41.524Z,99.90
2018-05-03T05:50:09.917Z,99.90
2018-05-03T05:52:38.264Z,99.90
2018-05-03T05:55:07.814Z,99.90
2018-05-03T05:57:36.176Z,99.90
2018-05-03T06:00:04.567Z,99.90
2018-05-03T06:02:32.952Z,99.90
2018-05-03T06:05:01.284Z,99.90
2018-05-03T06:07:30.415Z,99.90
2018-05-03T06:09:58.782Z,99.90
2018-05-03T06:12:27.162Z,99.90
2018-05-03T06:14:55.527Z,99.90
2018-05-03T06:17:23.864Z,99.90
2018-05-03T06:19:52.229Z,99.90
2018-05-03T06:22:20.574Z,99.90
2018-05-03T06:24:49.361Z,99.90
2018-05-03T06:27:17.722Z,99.90
2018-05-03T06:29:46.066Z,99.90
2018-05-03T06:32:14.423Z,99.90
2018-05-03T06:34:42.787Z,99.90
2018-05-03T06:37:11.116Z,99.90
2018-05-03T06:39:40.264Z,99.90
2018-05-03T06:42:08.619Z,99.90
2018-05-03T06:44:36.976Z,99.90
2018-05-03T06:47:05.677Z,99.90
2018-05-03T06:49:34.042Z,99.90
2018-05-03T06:52:03.143Z,99.90
2018-05-03T06:54:31.504Z,99.90
2018-05-03T06:57:00.611Z,99.90
2018-05-03T06:59:28.972Z,99.90
2018-05-03T07:01:58.085Z,99.90
2018-05-03T07:04:26.590Z,99.90
2018-05-03T07:06:55.211Z,99.90
2018-05-03T07:09:23.711Z,99.90
2018-05-03T07:11:52.002Z,99.90
2018-05-03T07:14:20.347Z,99.90
2018-05-03T07:16:48.704Z,99.90
2018-05-03T07:19:17.023Z,99.90
2018-05-03T07:21:46.188Z,99.90
2018-05-03T07:24:14.561Z,99.90
2018-05-03T07:26:42.915Z,99.90
2018-05-03T07:29:11.258Z,99.90
2018-05-03T07:31:40.392Z,99.90
2018-05-03T07:34:08.758Z,99.90
2018-05-03T07:36:37.080Z,99.90
2018-05-03T07:39:06.369Z,99.90
2018-05-03T07:41:34.719Z,99.90
2018-05-03T07:44:03.114Z,99.90
2018-05-03T07:46:31.455Z,99.90
2018-05-03T07:48:59.777Z,99.90
2018-05-03T07:51:28.117Z,99.90
2018-05-03T07:53:56.474Z,99.90
2018-05-03T07:56:24.842Z,99.90
2018-05-03T07:58:53.948Z,99.90
2018-05-03T08:01:23.158Z,99.90
2018-05-03T08:03:51.483Z,99.90
2018-05-03T08:06:20.583Z,99.20
2018-05-03T08:08:48.940Z,99.20
2018-05-03T08:11:17.291Z,99.60
2018-05-03T08:13:45.653Z,98.90
2018-05-03T08:16:13.980Z,97.90
2018-05-03T08:18:42.444Z,98.70
2018-05-03T08:21:10.833Z,96.70
2018-05-03T08:23:39.185Z,95.80
2018-05-03T08:26:07.551Z,96.70
2018-05-03T08:28:35.916Z,93.10
2018-05-03T08:31:04.302Z,94.80
2018-05-03T08:33:32.642Z,92.80
2018-05-03T08:36:01.057Z,91.30
2018-05-03T08:38:29.440Z,90.70
2018-05-03T08:40:58.131Z,90.50
2018-05-03T08:43:27.231Z,84.00
2018-05-03T08:45:55.597Z,84.40
2018-05-03T08:48:23.948Z,84.10
2018-05-03T08:50:53.068Z,77.30
2018-05-03T08:53:21.414Z,77.20
2018-05-03T08:55:50.626Z,72.50
2018-05-03T08:58:18.932Z,72.50
2018-05-03T09:00:48.014Z,72.30
2018-05-03T09:03:16.466Z,72.30
2018-05-03T09:05:45.566Z,71.60
2018-05-03T09:08:14.659Z,69.20
2018-05-03T09:10:43.051Z,69.20
2018-05-03T09:13:11.402Z,70.70
2018-05-03T09:15:39.728Z,69.80
2018-05-03T09:18:08.086Z,70.30
2018-05-03T09:20:36.419Z,69.60
2018-05-03T09:23:04.781Z,70.80
2018-05-03T09:25:33.117Z,68.20
2018-05-03T09:28:01.483Z,64.60
2018-05-03T09:30:29.807Z,62.80
2018-05-03T09:32:58.301Z,66.20
2018-05-03T09:35:26.647Z,69.80
2018-05-03T09:37:55.094Z,66.60
2018-05-03T09:40:23.448Z,64.70
2018-05-03T09:42:52.662Z,61.30
2018-05-03T09:45:21.746Z,59.70
2018-05-03T09:47:50.063Z,59.60
2018-05-03T09:50:18.411Z,57.00
2018-05-03T09:52:47.514Z,59.50
2018-05-03T09:55:16.676Z,62.70
2018-05-03T09:57:45.044Z,62.70
2018-05-03T10:00:13.378Z,60.00
2018-05-03T10:02:41.806Z,57.90
2018-05-03T10:05:10.136Z,58.90
2018-05-03T10:07:38.521Z,58.00
2018-05-03T10:10:06.843Z,56.10
2018-05-03T10:12:35.211Z,58.10
2018-05-03T10:15:03.603Z,55.30
2018-05-03T10:17:32.087Z,56.00
2018-05-03T10:20:00.442Z,53.70
2018-05-03T10:22:28.812Z,54.90
2018-05-03T10:24:57.164Z,55.00
2018-05-03T10:27:25.496Z,52.30
2018-05-03T10:29:53.900Z,51.80
2018-05-03T10:32:22.275Z,54.90
2018-05-03T10:34:51.369Z,52.90
2018-05-03T10:37:20.479Z,52.30
2018-05-03T10:39:48.843Z,52.30
2018-05-03T10:42:18.077Z,51.00
2018-05-03T10:44:46.348Z,51.00
2018-05-03T10:47:14.759Z,51.70
2018-05-03T10:49:43.096Z,55.00
2018-05-03T10:52:11.438Z,49.50
2018-05-03T10:54:40.544Z,51.70
2018-05-03T10:57:09.645Z,51.00
2018-05-03T10:59:38.097Z,50.90
2018-05-03T11:02:06.440Z,49.70
2018-05-03T11:04:34.949Z,51.10
2018-05-03T11:07:03.289Z,54.40
2018-05-03T11:09:31.629Z,53.30
2018-05-03T11:11:59.974Z,53.80
2018-05-03T11:14:28.375Z,52.20
2018-05-03T11:16:56.704Z,51.30
2018-05-03T11:19:25.046Z,51.50
2018-05-03T11:21:53.416Z,53.60
2018-05-03T11:24:22.517Z,55.20
2018-05-03T11:26:51.657Z,54.90
2018-05-03T11:29:19.992Z,54.70
2018-05-03T11:31:48.372Z,55.00
2018-05-03T11:34:17.072Z,55.60
2018-05-03T11:36:45.434Z,54.20
2018-05-03T11:39:13.803Z,54.30
2018-05-03T11:41:42.180Z,52.10
2018-05-03T11:44:11.277Z,53.70
2018-05-03T11:46:40.444Z,51.40
2018-05-03T11:49:08.778Z,51.40
2018-05-03T11:51:37.109Z,51.50
2018-05-03T11:54:05.474Z,52.70
2018-05-03T11:56:33.800Z,50.60
2018-05-03T11:59:02.280Z,50.30
2018-05-03T12:01:30.633Z,49.80
2018-05-03T12:03:59.729Z,52.20
2018-05-03T12:06:28.860Z,52.50
2018-05-03T12:08:57.182Z,52.40
2018-05-03T12:11:25.516Z,50.00
2018-05-03T12:13:53.859Z,51.40
2018-05-03T12:16:22.997Z,49.00
2018-05-03T12:18:51.327Z,49.00
2018-05-03T12:21:20.444Z,51.70
2018-05-03T12:23:48.770Z,51.50
2018-05-03T12:26:17.137Z,52.80
2018-05-03T12:28:45.460Z,49.90
2018-05-03T12:31:13.842Z,49.80
2018-05-03T12:33:42.551Z,51.30
2018-05-03T12:36:10.880Z,47.20
2018-05-03T12:38:39.233Z,46.50
2018-05-03T12:41:07.575Z,49.60
2018-05-03T12:43:35.920Z,48.50
2018-05-03T12:46:05.054Z,51.20
2018-05-03T12:48:33.406Z,51.10
2018-05-03T12:51:03.050Z,51.10
2018-05-03T12:53:31.394Z,51.10
2018-05-03T12:55:59.727Z,50.30
2018-05-03T12:58:28.101Z,53.30
2018-05-03T13:00:56.444Z,49.20
2018-05-03T13:03:24.806Z,49.90
2018-05-03T13:05:53.165Z,49.50
2018-05-03T13:08:22.346Z,48.20
2018-05-03T13:10:50.685Z,48.20
2018-05-03T13:13:19.050Z,47.50
2018-05-03T13:15:47.384Z,47.80
2018-05-03T13:18:15.731Z,49.20
2018-05-03T13:20:44.075Z,48.10
2018-05-03T13:23:12.431Z,48.20
2018-05-03T13:25:41.883Z,48.20
2018-05-03T13:28:10.250Z,48.20
2018-05-03T13:30:38.600Z,50.60
2018-05-03T13:33:06.981Z,49.90
2018-05-03T13:35:35.337Z,49.50
2018-05-03T13:38:04.491Z,48.60
2018-05-03T13:40:32.825Z,48.60
2018-05-03T13:43:01.315Z,49.50
2018-05-03T13:45:29.659Z,48.90
2018-05-03T13:47:57.988Z,50.80
2018-05-03T13:50:26.360Z,45.60
2018-05-03T13:52:54.700Z,47.00
2018-05-03T13:55:23.868Z,48.70
2018-05-03T13:57:52.188Z,48.70
2018-05-03T14:00:20.567Z,48.00
2018-05-03T14:02:48.962Z,49.70
2018-05-03T14:05:17.329Z,47.10
2018-05-03T14:07:45.708Z,48.30
2018-05-03T14:10:14.060Z,48.90
2018-05-03T14:12:43.146Z,48.80
2018-05-03T14:15:11.529Z,48.70
2018-05-03T14:17:39.891Z,48.00
2018-05-03T14:20:08.257Z,47.70
2018-05-03T14:22:36.610Z,49.30
2018-05-03T14:25:04.964Z,46.60
2018-05-03T14:27:33.307Z,45.70
2018-05-03T14:30:01.680Z,47.20
2018-05-03T14:32:30.055Z,48.50
2018-05-03T14:34:58.380Z,45.50
2018-05-03T14:37:26.850Z,48.40
2018-05-03T14:39:55.194Z,48.70
2018-05-03T14:42:23.529Z,48.10
2018-05-03T14:44:52.077Z,46.00
2018-05-03T14:47:20.444Z,47.20
2018-05-03T14:49:49.500Z,44.80
2018-05-03T14:52:20.205Z,47.90
2018-05-03T14:54:48.764Z,46.20
2018-05-03T14:57:17.963Z,46.30
2018-05-03T14:59:46.385Z,46.30
2018-05-03T15:02:14.726Z,46.80
2018-05-03T15:04:43.538Z,46.60
2018-05-03T15:07:11.928Z,44.50
2018-05-03T15:09:40.294Z,45.80
2018-05-03T15:12:08.782Z,49.30
2018-05-03T15:14:37.206Z,47.50
2018-05-03T15:17:06.324Z,45.40
2018-05-03T15:19:34.732Z,45.20
2018-05-03T15:22:03.834Z,47.20
2018-05-03T15:24:32.207Z,47.20
2018-05-03T15:27:00.570Z,47.90
2018-05-03T15:29:29.690Z,46.60
2018-05-03T15:31:58.114Z,46.60
2018-05-03T15:34:27.654Z,48.10
2018-05-03T15:36:55.994Z,48.00
2018-05-03T15:39:25.145Z,51.40
2018-05-03T15:41:53.548Z,50.80
2018-05-03T15:44:21.950Z,48.70
2018-05-03T15:46:51.122Z,46.40
2018-05-03T15:49:19.461Z,46.30
2018-05-03T15:51:47.799Z,47.10
2018-05-03T15:54:16.952Z,48.30
2018-05-03T15:56:45.714Z,48.20
2018-05-03T15:59:14.073Z,46.40
2018-05-03T16:01:42.424Z,46.40
2018-05-03T16:04:11.545Z,49.00
2018-05-03T16:06:39.879Z,48.40
2018-05-03T16:09:08.547Z,51.90
2018-05-03T16:11:36.969Z,48.60
2018-05-03T16:14:06.094Z,48.70
2018-05-03T16:16:34.434Z,48.70
2018-05-03T16:19:03.898Z,47.60
2018-05-03T16:21:32.243Z,47.30
2018-05-03T16:24:00.609Z,49.40
2018-05-03T16:26:28.977Z,50.20
2018-05-03T16:28:58.063Z,48.80
2018-05-03T16:31:27.186Z,48.70
2018-05-03T16:33:55.526Z,48.70
2018-05-03T16:36:23.877Z,49.40
2018-05-03T16:38:52.213Z,48.70
2018-05-03T16:41:20.581Z,50.20
2018-05-03T16:43:49.691Z,46.50
2018-05-03T16:46:18.196Z,46.40
2018-05-03T16:48:46.522Z,48.20
2018-05-03T16:51:14.878Z,49.10
2018-05-03T16:53:43.253Z,47.90
2018-05-03T16:56:11.702Z,48.80
2018-05-03T16:58:40.016Z,52.10
2018-05-03T17:01:08.339Z,49.90
2018-05-03T17:03:36.693Z,50.70
2018-05-03T17:06:05.804Z,51.90
2018-05-03T17:08:34.164Z,51.70
2018-05-03T17:11:03.260Z,51.10
2018-05-03T17:13:32.366Z,50.00
2018-05-03T17:16:00.698Z,50.00
2018-05-03T17:18:29.053Z,55.70
2018-05-03T17:20:57.416Z,51.60
2018-05-03T17:23:25.748Z,50.80
2018-05-03T17:25:54.100Z,53.40
2018-05-03T17:28:22.465Z,52.60
2018-05-03T17:30:50.797Z,50.00
2018-05-03T17:33:19.947Z,49.10
2018-05-03T17:35:48.301Z,49.00
2018-05-03T17:38:16.675Z,49.50
2018-05-03T17:40:44.999Z,51.20
2018-05-03T17:43:13.345Z,52.10
2018-05-03T17:45:41.803Z,52.50
2018-05-03T17:48:10.132Z,53.90
2018-05-03T17:50:38.501Z,54.20
2018-05-03T17:53:06.843Z,55.30
2018-05-03T17:55:35.203Z,55.60
2018-05-03T17:58:03.580Z,55.90
2018-05-03T18:00:31.945Z,55.80
2018-05-03T18:03:01.092Z,58.20
2018-05-03T18:05:29.458Z,58.10
2018-05-03T18:07:57.820Z,58.30
2018-05-03T18:10:26.169Z,57.30
2018-05-03T18:12:55.300Z,58.10
2018-05-03T18:15:23.635Z,58.10
2018-05-03T18:17:52.072Z,58.50
2018-05-03T18:20:21.562Z,60.90
2018-05-03T18:22:49.892Z,60.90
2018-05-03T18:25:18.269Z,62.90
2018-05-03T18:27:46.629Z,63.50
2018-05-03T18:30:15.022Z,63.70
2018-05-03T18:32:43.504Z,63.40
2018-05-03T18:35:12.244Z,64.70
2018-05-03T18:37:40.610Z,67.70
2018-05-03T18:40:10.079Z,68.30
2018-05-03T18:42:39.191Z,68.90
2018-05-03T18:45:08.321Z,70.40
2018-05-03T18:47:36.652Z,70.40
2018-05-03T18:50:05.756Z,78.60
2018-05-03T18:52:34.864Z,79.50
2018-05-03T18:55:03.394Z,79.40
2018-05-03T18:57:31.725Z,85.80
2018-05-03T19:00:00.069Z,90.10
2018-05-03T19:02:28.486Z,92.20
2018-05-03T19:04:56.842Z,94.80
2018-05-03T19:07:25.298Z,94.70
2018-05-03T19:09:53.628Z,98.60
2018-05-03T19:12:21.956Z,96.20
2018-05-03T19:14:50.298Z,98.80
2018-05-03T19:17:18.637Z,98.00
2018-05-03T19:19:46.981Z,99.90
2018-05-03T19:22:15.324Z,99.90
2018-05-03T19:24:43.709Z,99.90
2018-05-03T19:27:12.026Z,99.90
2018-05-03T19:29:41.139Z,99.90
2018-05-03T19:32:09.478Z,99.90
2018-05-03T19:34:37.854Z,99.90
2018-05-03T19:37:06.232Z,99.90
2018-05-03T19:39:34.563Z,99.90
2018-05-03T19:42:02.924Z,99.90
2018-05-03T19:44:32.030Z,99.90
2018-05-03T19:47:01.190Z,99.90
2018-05-03T19:49:29.543Z,99.90
2018-05-03T19:51:57.898Z,99.90
2018-05-03T19:54:26.258Z,99.90
2018-05-03T19:56:54.649Z,99.90
2018-05-03T19:59:22.994Z,99.90
2018-05-03T20:01:51.343Z,99.90
2018-05-03T20:04:19.827Z,99.90
2018-05-03T20:06:48.184Z,99.90
2018-05-03T20:09:16.542Z,99.90
2018-05-03T20:11:44.902Z,99.90
2018-05-03T20:14:13.261Z,99.90
2018-05-03T20:16:42.401Z,99.90
2018-05-03T20:19:10.779Z,99.90
2018-05-03T20:21:39.117Z,99.90
2018-05-03T20:24:08.241Z,99.90
2018-05-03T20:26:36.581Z,99.90
2018-05-03T20:29:05.714Z,99.90
2018-05-03T20:31:34.066Z,99.90
2018-05-03T20:34:02.434Z,99.90
2018-05-03T20:36:31.545Z,99.90
2018-05-03T20:39:00.060Z,99.90
2018-05-03T20:41:28.401Z,99.90
2018-05-03T20:43:56.731Z,99.90
2018-05-03T20:46:25.461Z,99.90
2018-05-03T20:48:53.803Z,99.90
2018-05-03T20:51:22.127Z,99.90
2018-05-03T20:53:50.623Z,99.90
2018-05-03T20:56:18.969Z,99.90
2018-05-03T20:58:47.301Z,99.90
2018-05-03T21:01:15.673Z,99.90
2018-05-03T21:03:44.009Z,99.90
2018-05-03T21:06:12.390Z,99.90
2018-05-03T21:08:40.739Z,99.90
2018-05-03T21:11:09.865Z,99.90
2018-05-03T21:13:38.208Z,99.90
2018-05-03T21:16:06.567Z,99.90
2018-05-03T21:18:34.882Z,99.90
2018-05-03T21:21:04.016Z,99.90
2018-05-03T21:23:32.373Z,99.90
2018-05-03T21:26:00.761Z,99.90
2018-05-03T21:28:29.854Z,99.90
2018-05-03T21:30:58.543Z,99.90
2018-05-03T21:33:26.893Z,99.90
2018-05-03T21:35:55.212Z,99.90
2018-05-03T21:38:23.579Z,99.90
2018-05-03T21:40:51.913Z,99.90
2018-05-03T21:43:21.021Z,99.90
2018-05-03T21:45:49.330Z,99.90
2018-05-03T21:48:17.697Z,99.90
2018-05-03T21:50:46.043Z,99.90
2018-05-03T21:53:15.119Z,99.90
2018-05-03T21:55:43.593Z,99.90
2018-05-03T21:58:11.938Z,99.90
2018-05-03T22:00:40.291Z,99.90
2018-05-03T22:03:08.741Z,99.90
2018-05-03T22:05:37.827Z,99.90
2018-05-03T22:08:06.249Z,99.90
2018-05-03T22:10:34.664Z,99.90
2018-05-03T22:13:03.006Z,99.90
2018-05-03T22:15:32.097Z,99.90
2018-05-03T22:18:00.430Z,99.90
2018-05-03T22:20:28.782Z,99.90
2018-05-03T22:22:57.132Z,99.90
2018-05-03T22:25:25.478Z,99.90
2018-05-03T22:27:54.600Z,99.90
2018-05-03T22:30:22.956Z,99.90
2018-05-03T22:32:52.210Z,99.90
2018-05-03T22:35:20.527Z,99.90
2018-05-03T22:37:49.634Z,99.90
2018-05-03T22:40:18.008Z,99.90
2018-05-03T22:42:47.101Z,99.90
2018-05-03T22:45:16.324Z,99.90
2018-05-03T22:47:44.648Z,99.90
2018-05-03T22:50:13.015Z,99.90
2018-05-03T22:52:41.361Z,99.90
2018-05-03T22:55:09.692Z,99.90
2018-05-03T22:57:38.829Z,99.90
2018-05-03T23:00:07.196Z,99.90
2018-05-03T23:02:35.543Z,99.90
2018-05-03T23:05:04.651Z,99.90
2018-05-03T23:07:33.766Z,99.90
2018-05-03T23:10:02.098Z,99.90
2018-05-03T23:12:30.501Z,99.90
2018-05-03T23:14:59.592Z,99.90
2018-05-03T23:17:28.733Z,99.90
2018-05-03T23:19:57.060Z,99.90
2018-05-03T23:22:26.202Z,99.90
2018-05-03T23:24:54.557Z,99.90
2018-05-03T23:27:22.894Z,99.90
2018-05-03T23:29:51.244Z,99.90
2018-05-03T23:32:19.576Z,99.90
2018-05-03T23:34:48.679Z,99.90
2018-05-03T23:37:17.009Z,99.90
2018-05-03T23:39:45.385Z,99.90
2018-05-03T23:42:13.717Z,99.90
2018-05-03T23:44:42.072Z,99.90
2018-05-03T23:47:11.225Z,99.90
2018-05-03T23:49:39.548Z,99.90
2018-05-03T23:52:07.886Z,99.90
2018-05-03T23:54:36.242Z,99.90
2018-05-03T23:57:04.556Z,99.90
2018-05-03T23:59:32.908Z,99.90
